Hlavní strana
METAR-TAF:

METAR-TAF

Letiště :

Chlef, Alžírsko

zeměpisná šířka: 36-13N, zeměpisná délka: 001-20E, výška: 143 m

Aktuální stav počasí

Zpráva byla vytvořena před 1 hodinou a 5 minutami, v 09:00 UTC
Jihozápadní vítr 4 kt
Teplota 17°C
Vlhkost vzduchu 68%
Tlak 1022 hPa
Viditelnost 10 km a více
Polojasno ve výšce 2300 ft

METAR: DAOI 060900Z 22004KT 9999 SCT023 17/11 Q1022

Čas: 11:05 (10:05 UTC)

Předpověď počasí

Zpráva byla vytvořena před 17 hodinami a 5 minutami, v 17:00 UTC
Předpověď platná od 05 v 18 UTC do 06 v 18 UTC
vítr z různých směrů 2 kt
Viditelnost 10 km a více
Žádná oblačnost pod 1500 m, nevyskytují se cumulonimby.
Změna
od 06 v 09 UTC do 06 v 12 UTC
Severní vítr 8 kt
Změna
od 06 v 13 UTC do 06 v 15 UTC
vítr z různých směrů 2 kt
Změna
od 06 v 16 UTC do 06 v 18 UTC
Východoseverovýchodní vítr 8 kt

TAF: DAOI 051700Z 0518/0618 VRB02KT CAVOK BECMG 0609/0612 36008KT BECMG 0613/0615 VRB02KT BECMG 0616/0618 06008KT

Stav a předpovědi počasí z více než 4 000 letišť (zprávy METAR a TAF).

Červené a žluté tečky na mapě představují dostupné meteorologické stanice.

Když kurzor umístíte na tečku, zobrazí se název stanice.

Pak kliknutím zobrazíte stav a předpověď počasí.

Chcete-li změnit mapu, kliknutím na zelené tlačítko se znaménkem +mapu přiblížíte, kliknutím na zelené tlačítko se znaménkem – mapu oddálíte a kliknutím na zelené šipky přejdete na sousední mapy.


METAR-TAF: